| time (UTC) | temp F | wind direction | speed MPH | gust MPH | rain 1hr in | rain 24hr in | rain mn in | humidity % | barometer mb |
| 20260504205359 | 85 | 269 | 5.0 | 10.0 | 0.00 | 0.00 | 0.00 | 27 | 1000.0 |
| 20260504204859 | 85 | 287 | 3.0 | 8.0 | 0.00 | 0.00 | 0.00 | 26 | 1000.3 |
| 20260504204358 | 85 | 266 | 4.0 | 7.0 | 0.00 | 0.00 | 0.00 | 25 | 1000.3 |
| 20260504203857 | 85 | 8 | 2.0 | 7.0 | 0.00 | 0.00 | 0.00 | 28 | 1000.3 |
| 20260504203357 | 86 | 267 | 5.0 | 11.0 | 0.00 | 0.00 | 0.00 | 23 | 1000.3 |
| 20260504202856 | 86 | 269 | 7.0 | 11.0 | 0.00 | 0.00 | 0.00 | 24 | 1000.3 |
| 20260504202356 | 86 | 334 | 3.0 | 9.0 | 0.00 | 0.00 | 0.00 | 25 | 1000.3 |
| 20260504201855 | 86 | 274 | 5.0 | 9.0 | 0.00 | 0.00 | 0.00 | 24 | 1000.3 |
| 20260504201354 | 86 | 269 | 4.0 | 9.0 | 0.00 | 0.00 | 0.00 | 22 | 1000.7 |
| 20260504200853 | 85 | 281 | 3.0 | 10.0 | 0.00 | 0.00 | 0.00 | 27 | 1000.3 |
| 20260504200353 | 85 | 253 | 3.0 | 11.0 | 0.00 | 0.00 | 0.00 | 26 | 1000.7 |
| 20260504195852 | 85 | 245 | 6.0 | 11.0 | 0.00 | 0.00 | 0.00 | 24 | 1000.3 |
| 20260504195351 | 85 | 286 | 6.0 | 9.0 | 0.00 | 0.00 | 0.00 | 23 | 1000.3 |
| 20260504194850 | 85 | 286 | 2.0 | 8.0 | 0.00 | 0.00 | 0.00 | 26 | 1000.3 |
| 20260504194350 | 85 | 273 | 3.0 | 7.0 | 0.00 | 0.00 | 0.00 | 29 | 1000.3 |
| 20260504193849 | 85 | 276 | 3.0 | 7.0 | 0.00 | 0.00 | 0.00 | 29 | 1000.3 |
| 20260504193348 | 85 | 279 | 2.0 | 7.0 | 0.00 | 0.00 | 0.00 | 28 | 1000.7 |
| 20260504192848 | 85 | 256 | 3.0 | 10.0 | 0.00 | 0.00 | 0.00 | 30 | 1000.3 |
| 20260504192347 | 85 | 237 | 5.0 | 10.0 | 0.00 | 0.00 | 0.00 | 28 | 1000.3 |
| 20260504191816 | 85 | 246 | 5.0 | 10.0 | 0.00 | 0.00 | 0.00 | 27 | 1000.7 |
| 20260504191315 | 85 | 257 | 7.0 | 9.0 | 0.00 | 0.00 | 0.00 | 28 | 1000.7 |
| 20260504190814 | 85 | 258 | 4.0 | 8.0 | 0.00 | 0.00 | 0.00 | 29 | 1000.7 |
| 20260504190314 | 85 | 266 | 3.0 | 8.0 | 0.00 | 0.00 | 0.00 | 27 | 1000.7 |
| 20260504185813 | 85 | 240 | 4.0 | 9.0 | 0.00 | 0.00 | 0.00 | 31 | 1000.7 |
| 20260504185313 | 84 | 225 | 4.0 | 9.0 | 0.00 | 0.00 | 0.00 | 27 | 1000.7 |
| 20260504184812 | 84 | 285 | 4.0 | 14.0 | 0.00 | 0.00 | 0.00 | 30 | 1001.0 |
| 20260504184311 | 84 | 271 | 3.0 | 14.0 | 0.00 | 0.00 | 0.00 | 32 | 1000.7 |
| 20260504183740 | 84 | 222 | 4.0 | 10.0 | 0.00 | 0.00 | 0.00 | 35 | 1000.7 |
| 20260504183239 | 84 | 241 | 7.0 | 10.0 | 0.00 | 0.00 | 0.00 | 31 | 1001.0 |
| 20260504182738 | 83 | 280 | 1.0 | 12.0 | 0.00 | 0.00 | 0.00 | 34 | 1000.7 |
| 20260504182237 | 83 | 285 | 4.0 | 12.0 | 0.00 | 0.00 | 0.00 | 32 | 1001.0 |
| 20260504181737 | 83 | 254 | 5.0 | 9.0 | 0.00 | 0.00 | 0.00 | 33 | 1001.0 |
| 20260504181236 | 82 | 243 | 4.0 | 8.0 | 0.00 | 0.00 | 0.00 | 36 | 1001.0 |
| 20260504180736 | 82 | 246 | 5.0 | 8.0 | 0.00 | 0.00 | 0.00 | 35 | 1001.0 |
| 20260504180235 | 82 | 283 | 6.0 | 8.0 | 0.00 | 0.00 | 0.00 | 35 | 1001.0 |
| 20260504175735 | 82 | 249 | 5.0 | 8.0 | 0.00 | 0.00 | 0.00 | 35 | 1001.4 |
| 20260504175234 | 82 | 279 | 3.0 | 7.0 | 0.00 | 0.00 | 0.00 | 36 | 1001.4 |
| 20260504174733 | 81 | 219 | 3.0 | 10.0 | 0.00 | 0.00 | 0.00 | 37 | 1001.4 |
| 20260504174233 | 81 | 237 | 4.0 | 10.0 | 0.00 | 0.00 | 0.00 | 37 | 1001.4 |
| 20260504173732 | 81 | 244 | 4.0 | 9.0 | 0.00 | 0.00 | 0.00 | 36 | 1001.4 |
| 20260504173231 | 81 | 247 | 3.0 | 9.0 | 0.00 | 0.00 | 0.00 | 38 | 1001.4 |
| 20260504172731 | 80 | 237 | 3.0 | 11.0 | 0.00 | 0.00 | 0.00 | 39 | 1001.4 |
| 20260504172230 | 80 | 216 | 5.0 | 11.0 | 0.00 | 0.00 | 0.00 | 39 | 1001.4 |
| 20260504171730 | 80 | 234 | 5.0 | 11.0 | 0.00 | 0.00 | 0.00 | 39 | 1001.4 |
| 20260504171229 | 80 | 230 | 2.0 | 11.0 | 0.00 | 0.00 | 0.00 | 39 | 1001.7 |
| 20260504170728 | 79 | 243 | 2.0 | 8.0 | 0.00 | 0.00 | 0.00 | 38 | 1001.7 |
| 20260504170228 | 79 | 226 | 5.0 | 11.0 | 0.00 | 0.00 | 0.00 | 38 | 1001.7 |
| 20260504150908 | 73 | 245 | 5.0 | 14.0 | 0.00 | 0.00 | 0.00 | 47 | 1002.0 |
| 20260504150407 | 73 | 238 | 6.0 | 14.0 | 0.00 | 0.00 | 0.00 | 44 | 1002.0 |
| 20260504141330 | 71 | 255 | 5.0 | 9.0 | 0.00 | 0.00 | 0.00 | 47 | 1002.4 |
| 20260504140829 | 71 | 245 | 4.0 | 8.0 | 0.00 | 0.00 | 0.00 | 47 | 1002.4 |
| 20260504140329 | 70 | 230 | 5.0 | 8.0 | 0.00 | 0.00 | 0.00 | 48 | 1002.4 |
| 20260504130821 | 65 | 186 | 1.0 | 5.0 | 0.00 | 0.00 | 0.00 | 54 | 1002.7 |
| 20260504130321 | 65 | 231 | 1.0 | 5.0 | 0.00 | 0.00 | 0.00 | 55 | 1002.7 |
| 20260504120241 | 61 | 138 | 0.0 | 6.0 | 0.00 | 0.00 | 0.00 | 58 | 1002.4 |
| 20260504110235 | 59 | 235 | 2.0 | 4.0 | 0.00 | 0.00 | 0.00 | 61 | 1002.4 |
| 20260504100156 | 60 | 105 | 1.0 | 1.0 | 0.00 | 0.00 | 0.00 | 59 | 1003.0 |
| 20260504081806 | 63 | 194 | 1.0 | 1.0 | 0.00 | 0.00 | 0.00 | 52 | 1004.4 |
| 20260504081234 | 63 | 98 | 1.0 | 1.0 | 0.00 | 0.00 | 0.00 | 52 | 1004.4 |
| 20260504080734 | 63 | 106 | 1.0 | 1.0 | 0.00 | 0.00 | 0.00 | 51 | 1004.4 |
| 20260504080233 | 64 | 103 | 1.0 | 1.0 | 0.00 | 0.00 | 0.00 | 51 | 1004.7 |
| 20260504050404 | 62 | 106 | 1.0 | 1.0 | 0.00 | 0.00 | 0.00 | 53 | 1007.1 |
| 20260504045904 | 62 | 106 | 0.0 | 0.0 | 0.00 | 0.00 | 0.00 | 52 | 1007.5 |
| 20260504045403 | 62 | 106 | 0.0 | 1.0 | 0.00 | 0.00 | 0.00 | 51 | 1007.5 |
| 20260504044902 | 62 | 106 | 1.0 | 1.0 | 0.00 | 0.00 | 0.00 | 53 | 1007.5 |
| 20260504044402 | 62 | 107 | 1.0 | 1.0 | 0.00 | 0.00 | 0.00 | 53 | 1007.5 |
| 20260504043901 | 62 | 106 | 0.0 | 1.0 | 0.00 | 0.00 | 0.00 | 53 | 1007.8 |
| 20260504043401 | 62 | 105 | 1.0 | 1.0 | 0.00 | 0.00 | 0.00 | 52 | 1007.8 |
| 20260504042900 | 62 | 105 | 0.0 | 1.0 | 0.00 | 0.00 | 0.00 | 52 | 1007.8 |
| 20260504042400 | 62 | 103 | 0.0 | 1.0 | 0.00 | 0.00 | 0.00 | 52 | 1007.8 |
| 20260504041859 | 62 | 103 | 0.0 | 0.0 | 0.00 | 0.00 | 0.00 | 53 | 1007.8 |
| 20260504041358 | 62 | 103 | 0.0 | 0.0 | 0.00 | 0.00 | 0.00 | 56 | 1008.1 |
| 20260504040857 | 63 | 103 | 0.0 | 0.0 | 0.00 | 0.00 | 0.00 | 57 | 1008.1 |
| 20260504040357 | 64 | 103 | 0.0 | 0.0 | 0.00 | 0.00 | 0.00 | 58 | 1008.1 |
| 20260504035856 | 64 | 103 | 0.0 | 0.0 | 0.00 | 0.00 | 0.00 | 53 | 1008.1 |
| 20260504035355 | 64 | 104 | 0.0 | 1.0 | 0.00 | 0.00 | 0.00 | 49 | 1007.8 |
| 20260504034823 | 64 | 103 | 1.0 | 1.0 | 0.00 | 0.00 | 0.00 | 49 | 1007.8 |
| 20260504034323 | 65 | 106 | 0.0 | 0.0 | 0.00 | 0.00 | 0.00 | 48 | 1007.8 |
| 20260504033822 | 65 | 106 | 0.0 | 1.0 | 0.00 | 0.00 | 0.00 | 45 | 1007.8 |
| 20260504033250 | 65 | 105 | 0.0 | 1.0 | 0.00 | 0.00 | 0.00 | 44 | 1007.8 |
| 20260504032750 | 65 | 103 | 0.0 | 1.0 | 0.00 | 0.00 | 0.00 | 48 | 1007.8 |
| 20260504032249 | 65 | 103 | 0.0 | 1.0 | 0.00 | 0.00 | 0.00 | 46 | 1008.1 |
| 20260504031749 | 65 | 103 | 1.0 | 1.0 | 0.00 | 0.00 | 0.00 | 45 | 1007.8 |
| 20260504031248 | 66 | 108 | 1.0 | 3.0 | 0.00 | 0.00 | 0.00 | 46 | 1007.8 |
| 20260504030747 | 66 | 46 | 0.0 | 3.0 | 0.00 | 0.00 | 0.00 | 43 | 1007.8 |
| 20260504030247 | 66 | 99 | 0.0 | 1.0 | 0.00 | 0.00 | 0.00 | 42 | 1007.5 |
| 20260504025746 | 67 | 97 | 0.0 | 1.0 | 0.00 | 0.00 | 0.00 | 42 | 1007.8 |
| 20260504025214 | 67 | 97 | 0.0 | 1.0 | 0.00 | 0.00 | 0.00 | 41 | 1007.8 |
| 20260504024714 | 67 | 97 | 1.0 | 1.0 | 0.00 | 0.00 | 0.00 | 41 | 1007.8 |
| 20260504024142 | 67 | 97 | 1.0 | 1.0 | 0.00 | 0.00 | 0.00 | 41 | 1007.8 |
| 20260504023641 | 66 | 98 | 1.0 | 1.0 | 0.00 | 0.00 | 0.00 | 41 | 1007.8 |
| 20260504023140 | 66 | 98 | 0.0 | 0.0 | 0.00 | 0.00 | 0.00 | 43 | 1007.8 |
| 20260504022640 | 67 | 98 | 0.0 | 1.0 | 0.00 | 0.00 | 0.00 | 44 | 1007.8 |
| 20260504022139 | 68 | 98 | 0.0 | 1.0 | 0.00 | 0.00 | 0.00 | 42 | 1007.8 |
| 20260504021639 | 68 | 98 | 0.0 | 1.0 | 0.00 | 0.00 | 0.00 | 41 | 1007.5 |
| 20260504021138 | 68 | 96 | 1.0 | 1.0 | 0.00 | 0.00 | 0.00 | 41 | 1007.5 |
| 20260504020606 | 68 | 90 | 1.0 | 1.0 | 0.00 | 0.00 | 0.00 | 41 | 1007.5 |
| 20260504020106 | 68 | 90 | 1.0 | 1.0 | 0.00 | 0.00 | 0.00 | 42 | 1007.8 |
| 20260504015534 | 68 | 92 | 1.0 | 1.0 | 0.00 | 0.00 | 0.00 | 42 | 1007.8 |
| 20260504015033 | 68 | 92 | 0.0 | 1.0 | 0.00 | 0.00 | 0.00 | 42 | 1007.8 |
| 20260504014532 | 68 | 93 | 1.0 | 1.0 | 0.00 | 0.00 | 0.00 | 42 | 1007.8 |
| 20260504014031 | 68 | 92 | 1.0 | 1.0 | 0.00 | 0.00 | 0.00 | 43 | 1007.8 |
| 20260504013531 | 68 | 92 | 0.0 | 1.0 | 0.00 | 0.00 | 0.00 | 41 | 1007.8 |
| 20260504013030 | 69 | 89 | 0.0 | 1.0 | 0.00 | 0.00 | 0.00 | 41 | 1007.8 |
| 20260504012459 | 70 | 89 | 0.0 | 1.0 | 0.00 | 0.00 | 0.00 | 39 | 1007.8 |
| 20260504011958 | 70 | 88 | 1.0 | 1.0 | 0.00 | 0.00 | 0.00 | 38 | 1007.8 |
| 20260504011457 | 70 | 71 | 1.0 | 1.0 | 0.00 | 0.00 | 0.00 | 38 | 1007.8 |
| 20260504010957 | 70 | 71 | 1.0 | 1.0 | 0.00 | 0.00 | 0.00 | 39 | 1007.8 |
| 20260504010456 | 71 | 71 | 1.0 | 1.0 | 0.00 | 0.00 | 0.00 | 39 | 1007.8 |
| 20260504005956 | 71 | 76 | 0.0 | 1.0 | 0.00 | 0.00 | 0.00 | 38 | 1007.8 |
| 20260504005455 | 72 | 76 | 1.0 | 1.0 | 0.00 | 0.00 | 0.00 | 38 | 1008.1 |
| 20260504004923 | 72 | 76 | 0.0 | 1.0 | 0.00 | 0.00 | 0.00 | 37 | 1008.1 |
| 20260504004422 | 72 | 76 | 0.0 | 1.0 | 0.00 | 0.00 | 0.00 | 38 | 1008.1 |
| 20260504003922 | 73 | 76 | 0.0 | 1.0 | 0.00 | 0.00 | 0.00 | 36 | 1008.1 |
| 20260504003421 | 73 | 76 | 1.0 | 1.0 | 0.00 | 0.00 | 0.00 | 36 | 1008.1 |
| 20260504002849 | 73 | 76 | 0.0 | 1.0 | 0.00 | 0.00 | 0.00 | 35 | 1008.1 |
| 20260504002348 | 74 | 76 | 1.0 | 1.0 | 0.00 | 0.00 | 0.00 | 35 | 1008.1 |
| 20260504001817 | 74 | 76 | 0.0 | 2.0 | 0.00 | 0.00 | 0.00 | 35 | 1008.1 |
| 20260504001316 | 75 | 77 | 1.0 | 4.0 | 0.00 | 0.00 | 0.00 | 34 | 1008.1 |
| 20260504000815 | 76 | 48 | 1.0 | 4.0 | 0.00 | 0.00 | 0.00 | 32 | 1008.1 |
| 20260504000243 | 76 | 63 | 1.0 | 1.0 | 0.00 | 0.00 | 0.00 | 29 | 1008.1 |
| 20260503235742 | 77 | 63 | 1.0 | 1.0 | 0.00 | 0.00 | 0.00 | 30 | 1008.1 |
| 20260503235241 | 77 | 63 | 1.0 | 2.0 | 0.00 | 0.00 | 0.00 | 30 | 1008.1 |
| 20260503234741 | 78 | 62 | 1.0 | 2.0 | 0.00 | 0.00 | 0.00 | 30 | 1008.1 |
| 20260503234240 | 78 | 60 | 1.0 | 2.0 | 0.00 | 0.00 | 0.00 | 33 | 1008.1 |
| 20260503233740 | 78 | 350 | 1.0 | 4.0 | 0.00 | 0.00 | 0.00 | 31 | 1008.5 |
| 20260503233239 | 78 | 294 | 2.0 | 4.0 | 0.00 | 0.00 | 0.00 | 27 | 1008.5 |
| 20260503232738 | 78 | 285 | 1.0 | 5.0 | 0.00 | 0.00 | 0.00 | 32 | 1008.5 |
| 20260503232237 | 79 | 50 | 1.0 | 5.0 | 0.00 | 0.00 | 0.00 | 29 | 1008.5 |
| 20260503231737 | 79 | 264 | 2.0 | 6.0 | 0.00 | 0.00 | 0.00 | 26 | 1008.5 |
| 20260503231236 | 79 | 267 | 4.0 | 6.0 | 0.00 | 0.00 | 0.00 | 26 | 1008.5 |
| 20260503230736 | 79 | 266 | 2.0 | 5.0 | 0.00 | 0.00 | 0.00 | 28 | 1008.5 |
| 20260503230235 | 79 | 261 | 3.0 | 7.0 | 0.00 | 0.00 | 0.00 | 27 | 1008.5 |
| 20260503225734 | 79 | 269 | 3.0 | 7.0 | 0.00 | 0.00 | 0.00 | 27 | 1008.5 |
| 20260503225234 | 79 | 293 | 1.0 | 2.0 | 0.00 | 0.00 | 0.00 | 30 | 1008.5 |
| 20260503224733 | 79 | 213 | 1.0 | 4.0 | 0.00 | 0.00 | 0.00 | 27 | 1008.5 |
| 20260503224232 | 78 | 305 | 1.0 | 6.0 | 0.00 | 0.00 | 0.00 | 26 | 1008.5 |
| 20260503223700 | 79 | 270 | 2.0 | 7.0 | 0.00 | 0.00 | 0.00 | 27 | 1008.8 |
| 20260503223200 | 79 | 280 | 4.0 | 7.0 | 0.00 | 0.00 | 0.00 | 26 | 1008.5 |
| 20260503222659 | 79 | 254 | 2.0 | 8.0 | 0.00 | 0.00 | 0.00 | 26 | 1008.8 |
| 20260503222127 | 79 | 267 | 4.0 | 9.0 | 0.00 | 0.00 | 0.00 | 26 | 1008.8 |
| 20260503221626 | 79 | 281 | 4.0 | 9.0 | 0.00 | 0.00 | 0.00 | 27 | 1008.8 |
| 20260503221126 | 79 | 282 | 5.0 | 9.0 | 0.00 | 0.00 | 0.00 | 27 | 1008.8 |
| 20260503220625 | 79 | 318 | 2.0 | 6.0 | 0.00 | 0.00 | 0.00 | 27 | 1008.8 |
| 20260503220124 | 79 | 268 | 2.0 | 6.0 | 0.00 | 0.00 | 0.00 | 27 | 1008.8 |
| 20260503215624 | 79 | 232 | 3.0 | 5.0 | 0.00 | 0.00 | 0.00 | 29 | 1008.8 |
| 20260503215052 | 79 | 249 | 1.0 | 7.0 | 0.00 | 0.00 | 0.00 | 29 | 1008.8 |
| 20260503214552 | 79 | 285 | 2.0 | 7.0 | 0.00 | 0.00 | 0.00 | 29 | 1009.1 |
| 20260503214051 | 79 | 272 | 2.0 | 5.0 | 0.00 | 0.00 | 0.00 | 29 | 1009.1 |
| 20260503213550 | 79 | 266 | 2.0 | 8.0 | 0.00 | 0.00 | 0.00 | 28 | 1009.1 |
| 20260503213019 | 79 | 260 | 3.0 | 6.0 | 0.00 | 0.00 | 0.00 | 28 | 1009.1 |
| 20260503212416 | 79 | 211 | 1.0 | 6.0 | 0.00 | 0.00 | 0.00 | 27 | 1009.1 |
| 20260503211844 | 79 | 264 | 2.0 | 9.0 | 0.00 | 0.00 | 0.00 | 29 | 1009.1 |
| 20260503211344 | 79 | 270 | 5.0 | 9.0 | 0.00 | 0.00 | 0.00 | 27 | 1009.5 |
| 20260503210843 | 79 | 271 | 4.0 | 6.0 | 0.00 | 0.00 | 0.00 | 30 | 1009.1 |
| 20260503210342 | 79 | 326 | 1.0 | 8.0 | 0.00 | 0.00 | 0.00 | 30 | 1009.5 |
| 20260503205842 | 79 | 247 | 5.0 | 8.0 | 0.00 | 0.00 | 0.00 | 28 | 1009.5 |